Aérodrome :
LOGIN :

S'inscrire | Disclaimer

   EN    FR    IT 

 










Légende :    VFR   VFR Marginal   IFR   IFR Intensif   IFR Très Intensif
Visi : 
Plafond : 
>= 8 km
>= 3000ft
5 à 8 km
1000 à 3000 ft
1500m à 5 km
500 à 1000 ft
800 à 1500m
200 à 500 ft
< 800m
< 200 ft
Symboles :   Orages  Brouillard  Fortes neiges  Fortes précipitations  Vent > 20 kt
SIGMETs :   Divers  Orages  Givrage  Turbulence  Onde Orograph.  Cendres Volcan.






- Altitude de l'aérodrome : 650 ft
- Code IATA : ZJI


LSZL - Locarno

DERNIER METAR :
  • 221020Z AUTO 00000KT 9999NDV BKN094 19/16 Q1024 RMK

METARs EXPIRÉS :
  • 220950Z VRB01KT 9999 FEW015 18/18 Q1025 RMK BLU+
  • 220920Z VRB02KT 9999 FEW010 17/17 Q1025 RMK BLU+
  • 220850Z VRB02KT 9000 FEW005 18/17 Q1025 RMK BLU+
  • 220820Z VRB02KT 9000 FEW001 BKN060 17/17 Q1025 RMK BLU
  • 220750Z VRB02KT 9000 FEW001 SCT055 BKN085 16/16 Q1025 RMK BLU

TAF TAF LSZL
Valide du 22 à 06h jusqu'au 22 à 15h UTC


220525Z 2206/2215 VRB03KT 2500 -RA FEW011 BKN055
TEMPO 2206/2209 RA
BECMG 2206/2209 7000



MET'MAP, la Météo Aéronautique d'un coup d'oeil ! - Copyright ORBIFLY Décembre 2007 - Disclaimer

ORBIFLY MET'MAP TEAM :

Programmation & Développement : Alexandra Zaïnal
Conception & Développement : Baudouin d'Aumeries
Co-Programmation & Développement : Marc-Olivier Méhu
Soutien technique & logistique : Manuel Goepfert

Contact : metmap@orbifly.com




SOURCES & CREDITS :

   NOAA